Terminal Aerodrome Forecast
Issued by NWS Corpus Christi, TX

Home | Current Version | Previous Version | Text Only | Print | Product List | Glossary On
Versions: 1 2 3 4 5 6 7 8 9 10 11 12 13 14 15
000
FTUS44 KCRP 290400 AAB
TAFVCT
TAF AMD
KVCT 290421Z 2904/2924 17003KT 1/4SM FG VV002
      TEMPO 2914/2915 1/2SM FG OVC002
     FM291500 17003KT 2SM BR OVC002
     FM291600 19012KT P6SM BKN008 OVC015
     FM291800 18008KT P6SM SCT020=

USA.gov is the U.S. government's official web portal to all federal, state and local government web resources and services.